createdAt,value
2018-05-21T17:18:47.979Z,23.8
2018-05-21T17:19:50.380Z,23.8
2018-05-21T17:20:52.444Z,24
2018-05-21T17:21:54.494Z,24
2018-05-21T17:22:56.530Z,23.7
2018-05-21T17:23:58.839Z,23.7
2018-05-21T17:25:00.857Z,23.6
2018-05-21T17:26:02.927Z,23.7
2018-05-21T17:27:04.951Z,23.6
2018-05-21T17:28:06.965Z,23.6
2018-05-21T17:29:09.373Z,23.5
2018-05-21T17:30:11.390Z,23.5
2018-05-21T17:31:13.418Z,23.6
2018-05-21T17:32:15.446Z,23.4
2018-05-21T17:33:17.452Z,23.5
2018-05-21T17:34:19.868Z,23.7
2018-05-21T17:35:21.891Z,23.5
2018-05-21T17:36:23.908Z,23.5
2018-05-21T17:37:26.307Z,23.4
2018-05-21T17:38:28.335Z,23.4
2018-05-21T17:39:30.353Z,23.5
2018-05-21T17:40:32.652Z,23.1
2018-05-21T17:41:34.667Z,23.1
2018-05-21T17:42:36.688Z,23.1
2018-05-21T17:43:38.707Z,23
2018-05-21T17:44:40.723Z,22.9
2018-05-21T17:45:42.750Z,23.1
2018-05-21T17:46:44.764Z,22.9
2018-05-21T17:47:46.775Z,22.8
2018-05-21T17:48:48.790Z,22.6
2018-05-21T17:49:50.805Z,22.7
2018-05-21T17:50:52.828Z,22.7
2018-05-21T17:51:54.844Z,22.6
2018-05-21T17:52:57.237Z,22.8
2018-05-21T17:53:59.258Z,22.7
2018-05-21T17:55:01.279Z,22.6
2018-05-21T17:56:03.590Z,22.7
2018-05-21T17:57:05.591Z,22.6
2018-05-21T17:58:07.602Z,22.5
2018-05-21T17:59:09.619Z,22.6
2018-05-21T18:00:11.636Z,22.3
2018-05-21T18:01:13.961Z,22.4
2018-05-21T18:02:15.973Z,22.3
2018-05-21T18:03:18.861Z,22.2
2018-05-21T18:04:21.088Z,22.1
2018-05-21T18:05:23.089Z,22.2
2018-05-21T18:06:25.398Z,22.1
2018-05-21T18:07:27.416Z,22
2018-05-21T18:08:29.435Z,22
2018-05-21T18:09:31.447Z,22
2018-05-21T18:10:33.456Z,22.1
2018-05-21T18:11:35.466Z,22.1
2018-05-21T18:12:37.480Z,22
2018-05-21T18:13:39.490Z,21.9
2018-05-21T18:14:41.557Z,21.9
2018-05-21T18:15:43.526Z,21.8
2018-05-21T18:16:45.526Z,21.7
2018-05-21T18:17:47.539Z,21.8
2018-05-21T18:18:49.624Z,21.6
2018-05-21T18:19:51.568Z,21.6
2018-05-21T18:20:53.577Z,21.5
2018-05-21T18:21:55.582Z,21.4
2018-05-21T18:22:57.591Z,21.3
2018-05-21T18:23:59.602Z,21.3
2018-05-21T18:25:01.612Z,21.2
2018-05-21T18:26:03.950Z,21.2
2018-05-21T18:27:05.960Z,21.2
2018-05-21T18:28:07.949Z,21.2
2018-05-21T18:29:09.957Z,21
2018-05-21T18:30:12.093Z,20.9
2018-05-21T18:31:14.355Z,21
2018-05-21T18:32:16.364Z,20.9
2018-05-21T18:33:18.372Z,20.9
2018-05-21T18:34:20.368Z,20.8
2018-05-21T18:35:22.379Z,20.9
2018-05-21T18:36:24.380Z,20.8
2018-05-21T18:37:26.398Z,20.6
2018-05-21T18:38:28.406Z,20.5
2018-05-21T18:39:30.700Z,20.5
2018-05-21T18:40:32.704Z,20.6
2018-05-21T18:41:34.712Z,20.5
2018-05-21T18:42:37.195Z,20.4
2018-05-21T18:43:39.144Z,20.4
2018-05-21T18:44:41.149Z,20.4
2018-05-21T18:45:43.165Z,20.1
2018-05-21T18:46:45.168Z,20
2018-05-21T18:47:47.171Z,20
2018-05-21T18:48:49.177Z,20.1
2018-05-21T18:49:51.748Z,20.1
2018-05-21T18:50:54.060Z,20.1
2018-05-21T18:51:56.732Z,20
2018-05-21T18:52:58.725Z,20
2018-05-21T18:54:00.884Z,19.9
2018-05-21T18:55:02.742Z,20
2018-05-21T18:56:04.740Z,20
2018-05-21T18:57:06.751Z,19.9
2018-05-21T18:58:08.753Z,19.7
2018-05-21T18:59:11.049Z,19.8
2018-05-21T19:00:13.153Z,19.7
2018-05-21T19:01:15.052Z,19.8
2018-05-21T19:02:17.068Z,19.7
2018-05-21T19:03:19.740Z,19.6
2018-05-21T19:04:21.747Z,19.6
2018-05-21T19:05:24.133Z,19.6
2018-05-21T19:06:26.133Z,19.5
2018-05-21T19:07:28.145Z,19.5
2018-05-21T19:08:30.134Z,19.6
2018-05-21T19:09:32.144Z,19.6
2018-05-21T19:10:34.150Z,19.5
2018-05-21T19:11:36.150Z,19.5
2018-05-21T19:12:38.160Z,19.4
2018-05-21T19:13:40.155Z,19.3
2018-05-21T19:14:42.437Z,19.2
2018-05-21T19:15:44.714Z,19.3
2018-05-21T19:16:46.720Z,19.3
2018-05-21T19:17:48.719Z,19.2
2018-05-21T19:18:50.788Z,19.2
2018-05-21T19:19:52.747Z,19.3
2018-05-21T19:20:55.040Z,19.2
2018-05-21T19:21:57.050Z,19.1
2018-05-21T19:22:59.056Z,19.1
2018-05-21T19:24:01.057Z,19.1
2018-05-21T19:25:03.343Z,19.1
2018-05-21T19:26:05.424Z,18.9
2018-05-21T19:27:07.439Z,18.9
2018-05-21T19:28:09.449Z,18.9
2018-05-21T19:29:11.470Z,18.9
2018-05-21T19:30:13.475Z,18.9
2018-05-21T19:31:15.639Z,18.9
2018-05-21T19:32:18.018Z,18.8
2018-05-21T19:33:20.404Z,18.8
2018-05-21T19:34:22.438Z,18.7
2018-05-21T19:35:24.432Z,18.6
2018-05-21T19:36:26.441Z,18.7
2018-05-21T19:37:28.437Z,18.8
2018-05-21T19:38:30.600Z,18.7
2018-05-21T19:39:32.891Z,18.7
2018-05-21T19:40:34.891Z,18.6
2018-05-21T19:41:36.960Z,18.7
2018-05-21T19:42:38.956Z,18.6
2018-05-21T19:43:41.034Z,18.6
2018-05-21T19:44:43.018Z,18.5
2018-05-21T19:45:45.016Z,18.5
2018-05-21T19:46:47.020Z,18.4
2018-05-21T19:47:49.321Z,18.4
2018-05-21T19:48:51.357Z,18.5
2018-05-21T19:49:53.650Z,18.4
2018-05-21T19:50:55.744Z,18.3
2018-05-21T19:51:57.747Z,18.3
2018-05-21T19:52:59.750Z,18.2
2018-05-21T19:54:01.749Z,18.2
2018-05-21T19:55:03.746Z,18.2
2018-05-21T19:56:05.747Z,18.2
2018-05-21T19:57:07.751Z,18.2
2018-05-21T19:58:10.020Z,18
2018-05-21T19:59:12.351Z,18
2018-05-21T20:00:14.332Z,18.1
2018-05-21T20:01:16.340Z,18.1
2018-05-21T20:02:18.353Z,17.9
2018-05-21T20:03:20.352Z,18
2018-05-21T20:04:22.390Z,17.9
2018-05-21T20:05:24.379Z,17.9
2018-05-21T20:06:26.386Z,17.9
2018-05-21T20:07:28.407Z,17.9
2018-05-21T20:08:30.830Z,17.9
2018-05-21T20:09:32.888Z,17.8
2018-05-21T20:10:34.879Z,17.8
2018-05-21T20:11:36.876Z,17.8
2018-05-21T20:12:38.973Z,17.7
2018-05-21T20:13:41.005Z,17.7
2018-05-21T20:14:43.935Z,17.7
2018-05-21T20:15:45.933Z,17.6
2018-05-21T20:16:48.224Z,17.6
2018-05-21T20:17:50.299Z,17.7
2018-05-21T20:18:52.605Z,17.6
2018-05-21T20:19:55.453Z,17.6
2018-05-21T20:20:57.461Z,17.6
2018-05-21T20:21:59.493Z,17.5
2018-05-21T20:23:01.493Z,17.5
2018-05-21T20:24:03.482Z,17.5
2018-05-21T20:25:05.497Z,17.5
2018-05-21T20:26:07.902Z,17.5
2018-05-21T20:27:09.890Z,17.5
2018-05-21T20:28:11.910Z,17.4
2018-05-21T20:29:13.913Z,17.4
2018-05-21T20:30:15.901Z,17.3
2018-05-21T20:31:17.921Z,17.3
2018-05-21T20:32:19.919Z,17.3
2018-05-21T20:33:22.195Z,17.3
2018-05-21T20:34:24.196Z,17.3
2018-05-21T20:35:26.190Z,17.1
2018-05-21T20:36:28.199Z,17.1
2018-05-21T20:37:30.186Z,17.1
2018-05-21T20:38:32.192Z,17
2018-05-21T20:39:34.197Z,17
2018-05-21T20:40:36.190Z,17
2018-05-21T20:41:38.192Z,16.9
2018-05-21T20:42:40.488Z,16.9
2018-05-21T20:43:42.489Z,16.8
2018-05-21T20:44:44.484Z,16.8
2018-05-21T20:45:46.482Z,16.8
2018-05-21T20:46:48.765Z,16.9
2018-05-21T20:47:50.770Z,16.8
2018-05-21T20:48:52.757Z,16.8
2018-05-21T20:49:54.760Z,16.8
2018-05-21T20:50:56.766Z,16.8
2018-05-21T20:51:59.040Z,16.8
2018-05-21T20:53:01.040Z,16.7
2018-05-21T20:54:03.032Z,16.8
2018-05-21T20:55:05.044Z,16.8
2018-05-21T20:56:07.071Z,16.7
2018-05-21T20:57:09.374Z,16.7
2018-05-21T20:58:11.391Z,16.6
2018-05-21T20:59:13.381Z,16.7
2018-05-21T21:00:15.381Z,16.5
2018-05-21T21:01:17.394Z,16.5
2018-05-21T21:02:19.958Z,16.5
2018-05-21T21:03:21.964Z,16.5
2018-05-21T21:04:24.239Z,16.5
2018-05-21T21:05:26.804Z,16.5
2018-05-21T21:06:28.810Z,16.4
2018-05-21T21:07:30.808Z,16.4
2018-05-21T21:08:33.116Z,16.4
2018-05-21T21:09:35.111Z,16.4
2018-05-21T21:10:37.963Z,16.4
2018-05-21T21:11:40.157Z,16.4
2018-05-21T21:12:42.431Z,16.4
2018-05-21T21:13:44.429Z,16.4
2018-05-21T21:14:46.427Z,16.4
2018-05-21T21:15:48.426Z,16.4
2018-05-21T21:16:50.419Z,16.3
2018-05-21T21:17:52.422Z,16.3
2018-05-21T21:18:54.426Z,16.2
2018-05-21T21:19:56.425Z,16.2
2018-05-21T21:20:58.410Z,16.2
2018-05-21T21:22:00.404Z,16.1
2018-05-21T21:23:02.403Z,16.1
2018-05-21T21:24:04.706Z,16.1
2018-05-21T21:25:06.714Z,16.1
2018-05-21T21:26:08.996Z,16.1
2018-05-21T21:27:11.384Z,16.1
2018-05-21T21:28:13.380Z,16.1
2018-05-21T21:29:15.367Z,16.1
2018-05-21T21:30:17.660Z,16.1
2018-05-21T21:31:19.927Z,16
2018-05-21T21:32:21.991Z,16
2018-05-21T21:33:23.940Z,16
2018-05-21T21:34:26.221Z,16
2018-05-21T21:35:28.215Z,16
2018-05-21T21:36:30.208Z,16
2018-05-21T21:37:32.800Z,16
2018-05-21T21:38:34.804Z,16
2018-05-21T21:39:36.782Z,16
2018-05-21T21:40:38.787Z,16
2018-05-21T21:41:40.776Z,15.9
2018-05-21T21:42:42.778Z,15.9
2018-05-21T21:43:45.448Z,15.9
2018-05-21T21:44:47.437Z,15.8
2018-05-21T21:45:49.436Z,15.9
2018-05-21T21:46:51.453Z,15.9
2018-05-21T21:47:53.833Z,15.9
2018-05-21T21:48:55.822Z,15.8
2018-05-21T21:49:57.819Z,15.8
2018-05-21T21:50:59.808Z,15.8
2018-05-21T21:52:01.807Z,15.8
2018-05-21T21:53:03.794Z,15.8
2018-05-21T21:54:06.083Z,15.8
2018-05-21T21:55:08.082Z,15.7
2018-05-21T21:56:10.070Z,15.7
2018-05-21T21:57:12.347Z,15.6
2018-05-21T21:58:14.348Z,15.6
2018-05-21T21:59:16.337Z,15.6
2018-05-21T22:00:18.338Z,15.6
2018-05-21T22:01:20.322Z,15.6
2018-05-21T22:02:22.330Z,15.5
2018-05-21T22:03:24.316Z,15.5
2018-05-21T22:04:26.730Z,15.6
2018-05-21T22:05:28.732Z,15.5
2018-05-21T22:06:30.725Z,15.5
2018-05-21T22:07:32.997Z,15.6
2018-05-21T22:08:34.993Z,15.5
2018-05-21T22:09:36.992Z,15.4
2018-05-21T22:10:38.983Z,15.4
2018-05-21T22:11:40.970Z,15.4
2018-05-21T22:12:43.571Z,15.4
2018-05-21T22:13:45.562Z,15.4
2018-05-21T22:14:47.852Z,15.3
2018-05-21T22:15:49.851Z,15.3
2018-05-21T22:16:51.851Z,15.2
2018-05-21T22:17:53.841Z,15.3
2018-05-21T22:18:55.839Z,15.3
2018-05-21T22:19:57.829Z,15.2
2018-05-21T22:21:00.216Z,15.2
2018-05-21T22:22:02.217Z,15.2
2018-05-21T22:23:04.218Z,15.2
2018-05-21T22:24:06.224Z,15.2
2018-05-21T22:25:08.217Z,15.2
2018-05-21T22:26:10.601Z,15.2
2018-05-21T22:27:12.583Z,15.2
2018-05-21T22:28:14.582Z,15.2
2018-05-21T22:29:16.864Z,15.2
2018-05-21T22:30:19.244Z,15.2
2018-05-21T22:31:21.235Z,15.2
2018-05-21T22:32:23.240Z,15.1
2018-05-21T22:33:25.234Z,15.1
2018-05-21T22:34:27.224Z,15.1
2018-05-21T22:35:29.219Z,15
2018-05-21T22:36:31.233Z,15
2018-05-21T22:37:33.509Z,15
2018-05-21T22:38:35.503Z,15
2018-05-21T22:39:37.494Z,15
2018-05-21T22:40:39.497Z,14.9
2018-05-21T22:41:41.500Z,15
2018-05-21T22:42:43.490Z,15
2018-05-21T22:43:45.769Z,15
2018-05-21T22:44:47.762Z,14.9
2018-05-21T22:45:49.751Z,14.8
2018-05-21T22:46:51.742Z,14.8
2018-05-21T22:47:54.032Z,14.7
2018-05-21T22:48:56.069Z,14.7
2018-05-21T22:49:58.017Z,14.7
2018-05-21T22:51:00.778Z,14.7
2018-05-21T22:52:02.776Z,14.6
2018-05-21T22:53:04.762Z,14.6
2018-05-21T22:54:06.765Z,14.6
2018-05-21T22:55:08.758Z,14.6
2018-05-21T22:56:10.752Z,14.6
2018-05-21T22:57:12.743Z,14.5
2018-05-21T22:58:14.735Z,14.5
2018-05-21T22:59:17.013Z,14.5
2018-05-21T23:00:19.017Z,14.5
2018-05-21T23:01:21.016Z,14.4
2018-05-21T23:02:23.014Z,14.5
2018-05-21T23:03:25.000Z,14.4
2018-05-21T23:04:26.997Z,14.3
2018-05-21T23:05:29.268Z,14.3
2018-05-21T23:06:31.930Z,14.4
2018-05-21T23:07:33.914Z,14.4
2018-05-21T23:08:35.929Z,14.4
2018-05-21T23:09:37.905Z,14.4
2018-05-21T23:10:39.904Z,14.4
2018-05-21T23:11:41.903Z,14.4
2018-05-21T23:12:43.899Z,14.4
2018-05-21T23:13:46.189Z,14.4
2018-05-21T23:14:48.573Z,14.4
2018-05-21T23:15:50.573Z,14.4
2018-05-21T23:16:52.866Z,14.4
2018-05-21T23:17:54.844Z,14.4
2018-05-21T23:18:56.854Z,14.3
2018-05-21T23:19:58.844Z,14.3
2018-05-21T23:21:00.843Z,14.3
2018-05-21T23:22:02.825Z,14.3
2018-05-21T23:23:04.820Z,14.3
2018-05-21T23:24:07.194Z,14.3
2018-05-21T23:25:09.188Z,14.3
2018-05-21T23:26:11.454Z,14.3
2018-05-21T23:27:13.459Z,14.3
2018-05-21T23:28:15.446Z,14.3
2018-05-21T23:29:17.441Z,14.3
2018-05-21T23:30:19.439Z,14.3
2018-05-21T23:31:21.739Z,14.2
2018-05-21T23:32:23.728Z,14.3
2018-05-21T23:33:25.723Z,14.2
2018-05-21T23:34:27.995Z,14.3
2018-05-21T23:35:29.999Z,14.2
2018-05-21T23:36:32.279Z,14.3
2018-05-21T23:37:34.579Z,14.2
2018-05-21T23:38:36.584Z,14.2
2018-05-21T23:39:38.853Z,14.2
2018-05-21T23:40:41.243Z,14.2
2018-05-21T23:41:43.229Z,14.2
2018-05-21T23:42:45.227Z,14.1
2018-05-21T23:43:47.224Z,14.1
2018-05-21T23:44:49.213Z,14.1
2018-05-21T23:45:51.495Z,14.1
2018-05-21T23:46:53.486Z,14.1
2018-05-21T23:47:55.865Z,14.1
2018-05-21T23:48:57.867Z,14.1
2018-05-21T23:49:59.849Z,14.1
2018-05-21T23:51:02.303Z,14.1
2018-05-21T23:52:04.547Z,14
2018-05-21T23:53:06.816Z,14.1
2018-05-21T23:54:09.108Z,14
2018-05-21T23:55:11.097Z,14.1
2018-05-21T23:56:13.090Z,14
2018-05-21T23:57:15.091Z,14
2018-05-21T23:58:17.387Z,14
2018-05-21T23:59:19.392Z,13.9
